sensor_id;sensor_type;location;lat;lon;timestamp;P1;durP1;ratioP1;P2;durP2;ratioP2
17832;SDS011;9041;49.718;21.798;2024-01-07T00:00:53;1.90;;;1.27;;
17832;SDS011;9041;49.718;21.798;2024-01-07T00:03:19;2.70;;;1.93;;
17832;SDS011;9041;49.718;21.798;2024-01-07T00:05:46;3.00;;;1.60;;
17832;SDS011;9041;49.718;21.798;2024-01-07T00:08:13;2.30;;;1.80;;
17832;SDS011;9041;49.718;21.798;2024-01-07T00:10:40;2.57;;;1.90;;
17832;SDS011;9041;49.718;21.798;2024-01-07T00:13:06;3.97;;;2.20;;
17832;SDS011;9041;49.718;21.798;2024-01-07T00:15:33;5.20;;;1.93;;
17832;SDS011;9041;49.718;21.798;2024-01-07T00:18:01;2.77;;;1.70;;
17832;SDS011;9041;49.718;21.798;2024-01-07T00:20:27;2.27;;;1.67;;
17832;SDS011;9041;49.718;21.798;2024-01-07T00:22:54;2.23;;;1.60;;
17832;SDS011;9041;49.718;21.798;2024-01-07T00:25:21;2.37;;;1.80;;
17832;SDS011;9041;49.718;21.798;2024-01-07T00:27:50;1.90;;;1.60;;
17832;SDS011;9041;49.718;21.798;2024-01-07T00:30:20;3.47;;;1.77;;
17832;SDS011;9041;49.718;21.798;2024-01-07T00:32:47;3.53;;;1.40;;
17832;SDS011;9041;49.718;21.798;2024-01-07T00:35:17;2.47;;;1.83;;
17832;SDS011;9041;49.718;21.798;2024-01-07T00:37:44;2.13;;;1.40;;
17832;SDS011;9041;49.718;21.798;2024-01-07T00:40:11;1.63;;;1.30;;
17832;SDS011;9041;49.718;21.798;2024-01-07T00:42:38;2.50;;;1.70;;
17832;SDS011;9041;49.718;21.798;2024-01-07T00:45:06;2.50;;;1.67;;
17832;SDS011;9041;49.718;21.798;2024-01-07T00:47:33;1.83;;;1.40;;
17832;SDS011;9041;49.718;21.798;2024-01-07T00:50:00;2.20;;;1.70;;
17832;SDS011;9041;49.718;21.798;2024-01-07T00:52:27;2.37;;;1.40;;
17832;SDS011;9041;49.718;21.798;2024-01-07T00:54:54;1.60;;;1.50;;
17832;SDS011;9041;49.718;21.798;2024-01-07T00:57:20;1.70;;;1.40;;
17832;SDS011;9041;49.718;21.798;2024-01-07T00:59:47;1.43;;;1.33;;
17832;SDS011;9041;49.718;21.798;2024-01-07T01:02:15;2.27;;;1.60;;
17832;SDS011;9041;49.718;21.798;2024-01-07T01:04:42;1.87;;;1.43;;
17832;SDS011;9041;49.718;21.798;2024-01-07T01:07:08;1.97;;;1.40;;
17832;SDS011;9041;49.718;21.798;2024-01-07T01:09:36;2.07;;;1.40;;
17832;SDS011;9041;49.718;21.798;2024-01-07T01:12:04;1.90;;;1.40;;
17832;SDS011;9041;49.718;21.798;2024-01-07T01:14:30;1.60;;;1.50;;
17832;SDS011;9041;49.718;21.798;2024-01-07T01:16:57;2.60;;;1.50;;
17832;SDS011;9041;49.718;21.798;2024-01-07T01:19:24;2.40;;;1.57;;
17832;SDS011;9041;49.718;21.798;2024-01-07T01:21:50;2.00;;;1.53;;
17832;SDS011;9041;49.718;21.798;2024-01-07T01:24:17;1.70;;;1.60;;
17832;SDS011;9041;49.718;21.798;2024-01-07T01:26:45;2.13;;;1.57;;
17832;SDS011;9041;49.718;21.798;2024-01-07T01:29:12;2.27;;;1.90;;
17832;SDS011;9041;49.718;21.798;2024-01-07T01:31:38;2.20;;;1.60;;
17832;SDS011;9041;49.718;21.798;2024-01-07T01:34:05;2.40;;;1.80;;
17832;SDS011;9041;49.718;21.798;2024-01-07T01:36:32;2.03;;;1.50;;
17832;SDS011;9041;49.718;21.798;2024-01-07T01:38:59;1.90;;;1.63;;
17832;SDS011;9041;49.718;21.798;2024-01-07T01:41:25;2.03;;;1.60;;
17832;SDS011;9041;49.718;21.798;2024-01-07T01:43:56;2.33;;;1.63;;
17832;SDS011;9041;49.718;21.798;2024-01-07T01:46:25;1.87;;;1.40;;
17832;SDS011;9041;49.718;21.798;2024-01-07T01:48:51;2.17;;;1.50;;
17832;SDS011;9041;49.718;21.798;2024-01-07T01:51:18;2.17;;;1.57;;
17832;SDS011;9041;49.718;21.798;2024-01-07T01:53:45;2.37;;;1.83;;
17832;SDS011;9041;49.718;21.798;2024-01-07T01:56:12;2.93;;;2.10;;
17832;SDS011;9041;49.718;21.798;2024-01-07T01:58:39;3.50;;;2.00;;
17832;SDS011;9041;49.718;21.798;2024-01-07T02:01:06;3.33;;;1.73;;
17832;SDS011;9041;49.718;21.798;2024-01-07T02:03:33;2.33;;;1.90;;
17832;SDS011;9041;49.718;21.798;2024-01-07T02:06:00;2.07;;;1.53;;
17832;SDS011;9041;49.718;21.798;2024-01-07T02:08:27;2.67;;;1.60;;
17832;SDS011;9041;49.718;21.798;2024-01-07T02:10:53;2.50;;;1.77;;
17832;SDS011;9041;49.718;21.798;2024-01-07T02:13:20;4.83;;;2.93;;
17832;SDS011;9041;49.718;21.798;2024-01-07T02:15:47;3.93;;;2.50;;
17832;SDS011;9041;49.718;21.798;2024-01-07T02:18:15;2.80;;;2.10;;
17832;SDS011;9041;49.718;21.798;2024-01-07T02:20:42;2.40;;;1.93;;
17832;SDS011;9041;49.718;21.798;2024-01-07T02:23:08;2.37;;;1.90;;
17832;SDS011;9041;49.718;21.798;2024-01-07T02:25:36;3.60;;;2.10;;
17832;SDS011;9041;49.718;21.798;2024-01-07T02:28:03;7.30;;;3.13;;
17832;SDS011;9041;49.718;21.798;2024-01-07T02:30:30;4.53;;;2.70;;
17832;SDS011;9041;49.718;21.798;2024-01-07T02:33:00;5.27;;;2.17;;
17832;SDS011;9041;49.718;21.798;2024-01-07T02:35:27;2.63;;;2.03;;
17832;SDS011;9041;49.718;21.798;2024-01-07T02:37:54;2.83;;;1.80;;
17832;SDS011;9041;49.718;21.798;2024-01-07T02:40:21;3.63;;;2.00;;
17832;SDS011;9041;49.718;21.798;2024-01-07T02:42:48;2.50;;;1.80;;
17832;SDS011;9041;49.718;21.798;2024-01-07T02:45:15;2.97;;;2.00;;
17832;SDS011;9041;49.718;21.798;2024-01-07T02:47:41;3.37;;;2.27;;
17832;SDS011;9041;49.718;21.798;2024-01-07T02:50:08;3.87;;;2.50;;
17832;SDS011;9041;49.718;21.798;2024-01-07T02:52:35;2.67;;;2.20;;
17832;SDS011;9041;49.718;21.798;2024-01-07T02:55:02;3.83;;;2.53;;
17832;SDS011;9041;49.718;21.798;2024-01-07T02:57:29;3.83;;;2.40;;
17832;SDS011;9041;49.718;21.798;2024-01-07T02:59:57;4.07;;;2.40;;
17832;SDS011;9041;49.718;21.798;2024-01-07T03:02:26;2.63;;;2.30;;
17832;SDS011;9041;49.718;21.798;2024-01-07T03:04:53;4.67;;;2.80;;
17832;SDS011;9041;49.718;21.798;2024-01-07T03:07:19;4.93;;;2.63;;
17832;SDS011;9041;49.718;21.798;2024-01-07T03:09:47;4.13;;;2.60;;
17832;SDS011;9041;49.718;21.798;2024-01-07T03:12:14;5.53;;;3.00;;
17832;SDS011;9041;49.718;21.798;2024-01-07T03:14:41;5.00;;;2.97;;
17832;SDS011;9041;49.718;21.798;2024-01-07T03:17:09;4.83;;;2.97;;
17832;SDS011;9041;49.718;21.798;2024-01-07T03:19:35;4.90;;;2.80;;
17832;SDS011;9041;49.718;21.798;2024-01-07T03:22:03;4.47;;;2.83;;
17832;SDS011;9041;49.718;21.798;2024-01-07T03:24:32;4.40;;;2.60;;
17832;SDS011;9041;49.718;21.798;2024-01-07T03:26:59;3.77;;;2.57;;
17832;SDS011;9041;49.718;21.798;2024-01-07T03:29:25;5.60;;;2.90;;
17832;SDS011;9041;49.718;21.798;2024-01-07T03:31:52;6.43;;;3.63;;
17832;SDS011;9041;49.718;21.798;2024-01-07T03:34:20;5.13;;;3.10;;
17832;SDS011;9041;49.718;21.798;2024-01-07T03:36:46;5.87;;;2.80;;
17832;SDS011;9041;49.718;21.798;2024-01-07T03:39:13;6.57;;;3.27;;
17832;SDS011;9041;49.718;21.798;2024-01-07T03:41:39;4.73;;;3.50;;
17832;SDS011;9041;49.718;21.798;2024-01-07T03:44:06;4.87;;;3.27;;
17832;SDS011;9041;49.718;21.798;2024-01-07T03:46:33;4.83;;;3.30;;
17832;SDS011;9041;49.718;21.798;2024-01-07T03:48:59;4.23;;;2.83;;
17832;SDS011;9041;49.718;21.798;2024-01-07T03:51:27;6.20;;;3.00;;
17832;SDS011;9041;49.718;21.798;2024-01-07T03:53:54;7.27;;;3.43;;
17832;SDS011;9041;49.718;21.798;2024-01-07T03:56:21;4.57;;;2.97;;
17832;SDS011;9041;49.718;21.798;2024-01-07T03:58:48;4.20;;;2.53;;
17832;SDS011;9041;49.718;21.798;2024-01-07T04:01:15;5.60;;;3.50;;
17832;SDS011;9041;49.718;21.798;2024-01-07T04:03:43;5.67;;;3.10;;
17832;SDS011;9041;49.718;21.798;2024-01-07T04:06:09;5.50;;;3.50;;
17832;SDS011;9041;49.718;21.798;2024-01-07T04:08:37;4.37;;;3.20;;
17832;SDS011;9041;49.718;21.798;2024-01-07T04:11:04;5.70;;;3.50;;
17832;SDS011;9041;49.718;21.798;2024-01-07T04:13:30;6.23;;;3.63;;
17832;SDS011;9041;49.718;21.798;2024-01-07T04:15:57;5.47;;;3.13;;
17832;SDS011;9041;49.718;21.798;2024-01-07T04:18:23;5.90;;;3.63;;
17832;SDS011;9041;49.718;21.798;2024-01-07T04:20:50;5.50;;;3.63;;
17832;SDS011;9041;49.718;21.798;2024-01-07T04:23:17;6.40;;;3.53;;
17832;SDS011;9041;49.718;21.798;2024-01-07T04:25:45;5.77;;;3.53;;
17832;SDS011;9041;49.718;21.798;2024-01-07T04:28:12;6.30;;;3.53;;
17832;SDS011;9041;49.718;21.798;2024-01-07T04:30:38;5.37;;;3.23;;
17832;SDS011;9041;49.718;21.798;2024-01-07T04:33:05;5.40;;;3.53;;
17832;SDS011;9041;49.718;21.798;2024-01-07T04:35:32;6.47;;;3.50;;
17832;SDS011;9041;49.718;21.798;2024-01-07T04:37:59;5.23;;;3.50;;
17832;SDS011;9041;49.718;21.798;2024-01-07T04:40:25;5.00;;;2.93;;
17832;SDS011;9041;49.718;21.798;2024-01-07T04:42:53;5.73;;;3.87;;
17832;SDS011;9041;49.718;21.798;2024-01-07T04:45:20;6.30;;;3.97;;
17832;SDS011;9041;49.718;21.798;2024-01-07T04:47:47;7.33;;;3.67;;
17832;SDS011;9041;49.718;21.798;2024-01-07T04:50:13;6.63;;;3.80;;
17832;SDS011;9041;49.718;21.798;2024-01-07T04:52:40;4.77;;;3.30;;
17832;SDS011;9041;49.718;21.798;2024-01-07T04:55:07;5.80;;;3.10;;
17832;SDS011;9041;49.718;21.798;2024-01-07T04:57:34;5.43;;;3.30;;
17832;SDS011;9041;49.718;21.798;2024-01-07T05:00:03;4.87;;;2.77;;
17832;SDS011;9041;49.718;21.798;2024-01-07T05:02:31;5.13;;;2.87;;
17832;SDS011;9041;49.718;21.798;2024-01-07T05:04:57;6.57;;;3.00;;
17832;SDS011;9041;49.718;21.798;2024-01-07T05:07:24;5.53;;;3.47;;
17832;SDS011;9041;49.718;21.798;2024-01-07T05:09:50;7.17;;;3.43;;
17832;SDS011;9041;49.718;21.798;2024-01-07T05:12:17;5.40;;;3.40;;
17832;SDS011;9041;49.718;21.798;2024-01-07T05:14:44;5.60;;;3.40;;
17832;SDS011;9041;49.718;21.798;2024-01-07T05:17:12;6.50;;;3.50;;
17832;SDS011;9041;49.718;21.798;2024-01-07T05:19:39;6.87;;;3.53;;
17832;SDS011;9041;49.718;21.798;2024-01-07T05:22:09;8.63;;;4.00;;
17832;SDS011;9041;49.718;21.798;2024-01-07T05:24:36;4.90;;;2.90;;
17832;SDS011;9041;49.718;21.798;2024-01-07T05:27:03;6.37;;;3.07;;
17832;SDS011;9041;49.718;21.798;2024-01-07T05:29:30;5.30;;;3.17;;
17832;SDS011;9041;49.718;21.798;2024-01-07T05:31:58;6.70;;;3.07;;
17832;SDS011;9041;49.718;21.798;2024-01-07T05:34:26;6.13;;;3.47;;
17832;SDS011;9041;49.718;21.798;2024-01-07T05:36:53;4.20;;;2.90;;
17832;SDS011;9041;49.718;21.798;2024-01-07T05:39:21;6.10;;;2.97;;
17832;SDS011;9041;49.718;21.798;2024-01-07T05:41:48;6.80;;;3.67;;
17832;SDS011;9041;49.718;21.798;2024-01-07T05:44:14;6.43;;;3.50;;
17832;SDS011;9041;49.718;21.798;2024-01-07T05:46:41;5.53;;;3.27;;
17832;SDS011;9041;49.718;21.798;2024-01-07T05:49:08;8.67;;;3.83;;
17832;SDS011;9041;49.718;21.798;2024-01-07T05:51:39;5.13;;;3.37;;
17832;SDS011;9041;49.718;21.798;2024-01-07T05:54:06;6.13;;;3.23;;
17832;SDS011;9041;49.718;21.798;2024-01-07T05:56:37;6.50;;;3.57;;
17832;SDS011;9041;49.718;21.798;2024-01-07T05:59:05;5.30;;;3.00;;
17832;SDS011;9041;49.718;21.798;2024-01-07T06:01:31;5.10;;;3.03;;
17832;SDS011;9041;49.718;21.798;2024-01-07T06:03:58;4.87;;;3.30;;
17832;SDS011;9041;49.718;21.798;2024-01-07T06:06:25;7.07;;;3.50;;
17832;SDS011;9041;49.718;21.798;2024-01-07T06:08:53;5.73;;;3.50;;
17832;SDS011;9041;49.718;21.798;2024-01-07T06:11:19;7.40;;;3.23;;
17832;SDS011;9041;49.718;21.798;2024-01-07T06:13:46;5.73;;;3.07;;
17832;SDS011;9041;49.718;21.798;2024-01-07T06:16:13;6.37;;;3.50;;
17832;SDS011;9041;49.718;21.798;2024-01-07T06:18:39;4.73;;;3.23;;
17832;SDS011;9041;49.718;21.798;2024-01-07T06:21:06;8.07;;;3.63;;
17832;SDS011;9041;49.718;21.798;2024-01-07T06:23:33;5.50;;;3.57;;
17832;SDS011;9041;49.718;21.798;2024-01-07T06:26:04;5.90;;;3.00;;
17832;SDS011;9041;49.718;21.798;2024-01-07T06:28:31;4.37;;;2.57;;
17832;SDS011;9041;49.718;21.798;2024-01-07T06:30:57;6.63;;;3.20;;
17832;SDS011;9041;49.718;21.798;2024-01-07T06:33:24;6.33;;;3.30;;
17832;SDS011;9041;49.718;21.798;2024-01-07T06:35:51;7.27;;;4.07;;
17832;SDS011;9041;49.718;21.798;2024-01-07T06:38:17;7.33;;;3.60;;
17832;SDS011;9041;49.718;21.798;2024-01-07T06:40:44;8.33;;;3.57;;
17832;SDS011;9041;49.718;21.798;2024-01-07T06:43:12;6.73;;;3.37;;
17832;SDS011;9041;49.718;21.798;2024-01-07T06:45:38;6.47;;;3.80;;
17832;SDS011;9041;49.718;21.798;2024-01-07T06:48:05;6.67;;;3.47;;
17832;SDS011;9041;49.718;21.798;2024-01-07T06:50:33;6.90;;;3.00;;
17832;SDS011;9041;49.718;21.798;2024-01-07T06:52:59;6.67;;;3.37;;
17832;SDS011;9041;49.718;21.798;2024-01-07T06:55:26;8.63;;;3.87;;
17832;SDS011;9041;49.718;21.798;2024-01-07T06:57:53;6.00;;;3.53;;
17832;SDS011;9041;49.718;21.798;2024-01-07T07:00:21;6.07;;;3.60;;
17832;SDS011;9041;49.718;21.798;2024-01-07T07:02:47;10.80;;;3.93;;
17832;SDS011;9041;49.718;21.798;2024-01-07T07:05:14;5.73;;;3.30;;
17832;SDS011;9041;49.718;21.798;2024-01-07T07:07:41;6.97;;;3.97;;
17832;SDS011;9041;49.718;21.798;2024-01-07T07:10:08;8.17;;;3.83;;
17832;SDS011;9041;49.718;21.798;2024-01-07T07:12:35;6.13;;;3.33;;
17832;SDS011;9041;49.718;21.798;2024-01-07T07:15:02;8.03;;;3.77;;
17832;SDS011;9041;49.718;21.798;2024-01-07T07:17:29;8.93;;;3.93;;
17832;SDS011;9041;49.718;21.798;2024-01-07T07:19:56;11.90;;;3.67;;
17832;SDS011;9041;49.718;21.798;2024-01-07T07:22:26;6.23;;;3.90;;
17832;SDS011;9041;49.718;21.798;2024-01-07T07:24:52;8.10;;;3.63;;
17832;SDS011;9041;49.718;21.798;2024-01-07T07:27:19;8.73;;;3.50;;
17832;SDS011;9041;49.718;21.798;2024-01-07T07:29:45;6.90;;;3.60;;
17832;SDS011;9041;49.718;21.798;2024-01-07T07:32:12;8.70;;;4.30;;
17832;SDS011;9041;49.718;21.798;2024-01-07T07:34:40;6.70;;;3.40;;
17832;SDS011;9041;49.718;21.798;2024-01-07T07:37:07;5.53;;;3.70;;
17832;SDS011;9041;49.718;21.798;2024-01-07T07:39:34;6.30;;;3.40;;
17832;SDS011;9041;49.718;21.798;2024-01-07T07:42:00;9.43;;;4.20;;
17832;SDS011;9041;49.718;21.798;2024-01-07T07:44:27;7.40;;;3.70;;
17832;SDS011;9041;49.718;21.798;2024-01-07T07:46:53;9.37;;;3.60;;
17832;SDS011;9041;49.718;21.798;2024-01-07T07:49:20;6.87;;;3.87;;
17832;SDS011;9041;49.718;21.798;2024-01-07T07:51:49;6.00;;;3.13;;
17832;SDS011;9041;49.718;21.798;2024-01-07T07:54:15;6.00;;;3.27;;
17832;SDS011;9041;49.718;21.798;2024-01-07T07:56:42;6.00;;;3.27;;
17832;SDS011;9041;49.718;21.798;2024-01-07T07:59:09;6.47;;;3.57;;
17832;SDS011;9041;49.718;21.798;2024-01-07T08:01:35;7.23;;;3.47;;
17832;SDS011;9041;49.718;21.798;2024-01-07T08:04:02;6.37;;;3.53;;
17832;SDS011;9041;49.718;21.798;2024-01-07T08:06:30;7.43;;;3.27;;
17832;SDS011;9041;49.718;21.798;2024-01-07T08:08:58;10.07;;;3.97;;
17832;SDS011;9041;49.718;21.798;2024-01-07T08:11:25;7.33;;;3.43;;
17832;SDS011;9041;49.718;21.798;2024-01-07T08:13:51;6.30;;;3.43;;
17832;SDS011;9041;49.718;21.798;2024-01-07T08:16:20;8.97;;;4.00;;
17832;SDS011;9041;49.718;21.798;2024-01-07T08:18:46;6.97;;;4.20;;
17832;SDS011;9041;49.718;21.798;2024-01-07T08:21:13;8.57;;;4.00;;
17832;SDS011;9041;49.718;21.798;2024-01-07T08:23:39;5.23;;;3.33;;
17832;SDS011;9041;49.718;21.798;2024-01-07T08:26:10;8.43;;;3.47;;
17832;SDS011;9041;49.718;21.798;2024-01-07T08:28:37;8.97;;;3.90;;
17832;SDS011;9041;49.718;21.798;2024-01-07T08:31:05;7.80;;;3.60;;
17832;SDS011;9041;49.718;21.798;2024-01-07T08:33:34;4.73;;;3.00;;
17832;SDS011;9041;49.718;21.798;2024-01-07T08:36:01;5.93;;;3.00;;
17832;SDS011;9041;49.718;21.798;2024-01-07T08:38:27;5.33;;;2.83;;
17832;SDS011;9041;49.718;21.798;2024-01-07T08:40:54;8.90;;;3.43;;
17832;SDS011;9041;49.718;21.798;2024-01-07T08:43:26;8.30;;;3.17;;
17832;SDS011;9041;49.718;21.798;2024-01-07T08:45:53;8.50;;;3.37;;
17832;SDS011;9041;49.718;21.798;2024-01-07T08:48:19;5.40;;;2.60;;
17832;SDS011;9041;49.718;21.798;2024-01-07T08:50:47;6.13;;;3.03;;
17832;SDS011;9041;49.718;21.798;2024-01-07T08:53:17;6.90;;;4.10;;
17832;SDS011;9041;49.718;21.798;2024-01-07T08:55:43;4.67;;;3.30;;
17832;SDS011;9041;49.718;21.798;2024-01-07T08:58:12;8.33;;;4.00;;
17832;SDS011;9041;49.718;21.798;2024-01-07T09:00:41;6.57;;;3.30;;
17832;SDS011;9041;49.718;21.798;2024-01-07T09:03:11;7.00;;;3.20;;
17832;SDS011;9041;49.718;21.798;2024-01-07T09:05:38;7.60;;;3.57;;
17832;SDS011;9041;49.718;21.798;2024-01-07T09:08:05;7.93;;;3.50;;
17832;SDS011;9041;49.718;21.798;2024-01-07T09:10:36;7.40;;;3.83;;
17832;SDS011;9041;49.718;21.798;2024-01-07T09:13:03;7.10;;;3.20;;
17832;SDS011;9041;49.718;21.798;2024-01-07T09:15:30;7.30;;;3.30;;
17832;SDS011;9041;49.718;21.798;2024-01-07T09:17:58;9.30;;;3.70;;
17832;SDS011;9041;49.718;21.798;2024-01-07T09:20:27;12.80;;;3.97;;
17832;SDS011;9041;49.718;21.798;2024-01-07T09:22:53;6.03;;;3.10;;
17832;SDS011;9041;49.718;21.798;2024-01-07T09:25:20;5.57;;;3.30;;
17832;SDS011;9041;49.718;21.798;2024-01-07T09:27:47;7.53;;;3.93;;
17832;SDS011;9041;49.718;21.798;2024-01-07T09:30:13;4.93;;;3.20;;
17832;SDS011;9041;49.718;21.798;2024-01-07T09:32:42;11.57;;;3.97;;
17832;SDS011;9041;49.718;21.798;2024-01-07T09:35:15;13.10;;;3.77;;
17832;SDS011;9041;49.718;21.798;2024-01-07T09:37:42;8.87;;;3.20;;
17832;SDS011;9041;49.718;21.798;2024-01-07T09:40:09;10.73;;;4.17;;
17832;SDS011;9041;49.718;21.798;2024-01-07T09:42:36;6.50;;;3.60;;
17832;SDS011;9041;49.718;21.798;2024-01-07T09:45:03;7.63;;;3.13;;
17832;SDS011;9041;49.718;21.798;2024-01-07T09:47:33;12.63;;;4.10;;
17832;SDS011;9041;49.718;21.798;2024-01-07T09:50:01;9.47;;;3.87;;
17832;SDS011;9041;49.718;21.798;2024-01-07T09:52:29;8.50;;;3.63;;
17832;SDS011;9041;49.718;21.798;2024-01-07T09:54:57;11.30;;;4.00;;
17832;SDS011;9041;49.718;21.798;2024-01-07T09:57:28;9.67;;;3.77;;
17832;SDS011;9041;49.718;21.798;2024-01-07T09:59:55;6.43;;;3.13;;
17832;SDS011;9041;49.718;21.798;2024-01-07T10:02:22;11.40;;;3.17;;
17832;SDS011;9041;49.718;21.798;2024-01-07T10:04:49;9.97;;;4.00;;
17832;SDS011;9041;49.718;21.798;2024-01-07T10:07:16;5.60;;;3.40;;
17832;SDS011;9041;49.718;21.798;2024-01-07T10:09:44;8.10;;;3.73;;
17832;SDS011;9041;49.718;21.798;2024-01-07T10:12:10;7.70;;;3.00;;
17832;SDS011;9041;49.718;21.798;2024-01-07T10:14:38;9.23;;;3.77;;
17832;SDS011;9041;49.718;21.798;2024-01-07T10:17:13;8.17;;;3.83;;
17832;SDS011;9041;49.718;21.798;2024-01-07T10:19:41;9.13;;;3.67;;
17832;SDS011;9041;49.718;21.798;2024-01-07T10:22:09;11.20;;;4.80;;
17832;SDS011;9041;49.718;21.798;2024-01-07T10:24:39;9.43;;;4.03;;
17832;SDS011;9041;49.718;21.798;2024-01-07T10:27:08;9.60;;;4.03;;
17832;SDS011;9041;49.718;21.798;2024-01-07T10:29:34;8.83;;;3.77;;
17832;SDS011;9041;49.718;21.798;2024-01-07T10:32:01;11.93;;;4.23;;
17832;SDS011;9041;49.718;21.798;2024-01-07T10:34:31;5.37;;;3.30;;
17832;SDS011;9041;49.718;21.798;2024-01-07T10:37:00;9.37;;;4.03;;
17832;SDS011;9041;49.718;21.798;2024-01-07T10:39:28;7.83;;;3.60;;
17832;SDS011;9041;49.718;21.798;2024-01-07T10:41:54;10.30;;;4.10;;
17832;SDS011;9041;49.718;21.798;2024-01-07T10:44:24;8.33;;;4.10;;
17832;SDS011;9041;49.718;21.798;2024-01-07T10:46:52;5.87;;;3.40;;
17832;SDS011;9041;49.718;21.798;2024-01-07T10:49:20;10.07;;;4.07;;
17832;SDS011;9041;49.718;21.798;2024-01-07T10:51:48;7.43;;;4.00;;
17832;SDS011;9041;49.718;21.798;2024-01-07T10:54:17;8.60;;;3.93;;
17832;SDS011;9041;49.718;21.798;2024-01-07T10:56:46;7.27;;;3.83;;
17832;SDS011;9041;49.718;21.798;2024-01-07T10:59:15;12.30;;;4.00;;
17832;SDS011;9041;49.718;21.798;2024-01-07T11:01:43;7.50;;;3.87;;
17832;SDS011;9041;49.718;21.798;2024-01-07T11:04:10;7.40;;;3.77;;
17832;SDS011;9041;49.718;21.798;2024-01-07T11:06:43;5.33;;;3.47;;
17832;SDS011;9041;49.718;21.798;2024-01-07T11:09:19;10.20;;;4.27;;
17832;SDS011;9041;49.718;21.798;2024-01-07T11:11:50;6.67;;;4.27;;
17832;SDS011;9041;49.718;21.798;2024-01-07T11:14:35;9.17;;;4.20;;
17832;SDS011;9041;49.718;21.798;2024-01-07T11:17:06;10.43;;;4.17;;
17832;SDS011;9041;49.718;21.798;2024-01-07T11:19:36;8.33;;;4.53;;
17832;SDS011;9041;49.718;21.798;2024-01-07T11:22:21;11.27;;;4.60;;
17832;SDS011;9041;49.718;21.798;2024-01-07T11:24:49;11.03;;;4.30;;
17832;SDS011;9041;49.718;21.798;2024-01-07T11:27:16;8.83;;;3.87;;
17832;SDS011;9041;49.718;21.798;2024-01-07T11:29:43;9.20;;;4.77;;
17832;SDS011;9041;49.718;21.798;2024-01-07T11:32:13;4.70;;;2.10;;
17832;SDS011;9041;49.718;21.798;2024-01-07T11:34:43;9.27;;;4.37;;
17832;SDS011;9041;49.718;21.798;2024-01-07T11:37:12;9.93;;;4.30;;
17832;SDS011;9041;49.718;21.798;2024-01-07T11:39:41;5.60;;;2.70;;
17832;SDS011;9041;49.718;21.798;2024-01-07T11:42:08;7.73;;;3.80;;
17832;SDS011;9041;49.718;21.798;2024-01-07T11:44:35;9.83;;;4.60;;
17832;SDS011;9041;49.718;21.798;2024-01-07T11:47:05;7.40;;;3.40;;
17832;SDS011;9041;49.718;21.798;2024-01-07T11:49:33;9.47;;;3.80;;
17832;SDS011;9041;49.718;21.798;2024-01-07T11:51:59;8.70;;;4.07;;
17832;SDS011;9041;49.718;21.798;2024-01-07T11:54:27;10.27;;;4.70;;
17832;SDS011;9041;49.718;21.798;2024-01-07T11:56:54;7.40;;;3.73;;
17832;SDS011;9041;49.718;21.798;2024-01-07T11:59:21;10.77;;;5.17;;
17832;SDS011;9041;49.718;21.798;2024-01-07T12:01:48;12.63;;;5.50;;
17832;SDS011;9041;49.718;21.798;2024-01-07T12:04:16;9.60;;;4.50;;
17832;SDS011;9041;49.718;21.798;2024-01-07T12:06:44;15.00;;;5.10;;
17832;SDS011;9041;49.718;21.798;2024-01-07T12:09:13;8.27;;;3.57;;
17832;SDS011;9041;49.718;21.798;2024-01-07T12:11:39;13.47;;;5.33;;
17832;SDS011;9041;49.718;21.798;2024-01-07T12:14:06;9.70;;;4.60;;
17832;SDS011;9041;49.718;21.798;2024-01-07T12:16:33;10.43;;;4.60;;
17832;SDS011;9041;49.718;21.798;2024-01-07T12:19:00;12.80;;;5.33;;
17832;SDS011;9041;49.718;21.798;2024-01-07T12:21:27;12.17;;;5.07;;
17832;SDS011;9041;49.718;21.798;2024-01-07T12:23:56;13.87;;;5.47;;
17832;SDS011;9041;49.718;21.798;2024-01-07T12:26:25;12.73;;;5.60;;
17832;SDS011;9041;49.718;21.798;2024-01-07T12:28:52;9.20;;;4.50;;
17832;SDS011;9041;49.718;21.798;2024-01-07T12:31:25;3.63;;;2.67;;
17832;SDS011;9041;49.718;21.798;2024-01-07T12:33:52;7.33;;;3.47;;
17832;SDS011;9041;49.718;21.798;2024-01-07T12:36:20;13.40;;;4.77;;
17832;SDS011;9041;49.718;21.798;2024-01-07T12:38:46;12.43;;;5.40;;
17832;SDS011;9041;49.718;21.798;2024-01-07T12:41:23;6.80;;;3.53;;
17832;SDS011;9041;49.718;21.798;2024-01-07T12:43:49;9.97;;;5.23;;
17832;SDS011;9041;49.718;21.798;2024-01-07T12:46:16;12.63;;;5.63;;
17832;SDS011;9041;49.718;21.798;2024-01-07T12:48:43;11.03;;;4.90;;
17832;SDS011;9041;49.718;21.798;2024-01-07T12:51:11;10.43;;;4.90;;
17832;SDS011;9041;49.718;21.798;2024-01-07T12:53:40;13.17;;;6.00;;
17832;SDS011;9041;49.718;21.798;2024-01-07T12:56:07;14.27;;;6.07;;
17832;SDS011;9041;49.718;21.798;2024-01-07T12:58:36;12.47;;;5.00;;
17832;SDS011;9041;49.718;21.798;2024-01-07T13:01:05;11.20;;;5.50;;
17832;SDS011;9041;49.718;21.798;2024-01-07T13:03:32;10.43;;;4.50;;
17832;SDS011;9041;49.718;21.798;2024-01-07T13:06:03;12.23;;;5.60;;
17832;SDS011;9041;49.718;21.798;2024-01-07T13:08:52;9.57;;;4.73;;
17832;SDS011;9041;49.718;21.798;2024-01-07T13:11:18;13.63;;;6.07;;
17832;SDS011;9041;49.718;21.798;2024-01-07T13:13:46;14.33;;;5.30;;
17832;SDS011;9041;49.718;21.798;2024-01-07T13:16:13;16.30;;;5.70;;
17832;SDS011;9041;49.718;21.798;2024-01-07T13:18:39;14.20;;;5.93;;
17832;SDS011;9041;49.718;21.798;2024-01-07T13:21:09;14.10;;;5.70;;
17832;SDS011;9041;49.718;21.798;2024-01-07T13:23:36;13.53;;;6.33;;
17832;SDS011;9041;49.718;21.798;2024-01-07T13:26:02;15.00;;;5.93;;
17832;SDS011;9041;49.718;21.798;2024-01-07T13:28:31;15.07;;;5.20;;
17832;SDS011;9041;49.718;21.798;2024-01-07T13:30:59;13.93;;;5.40;;
17832;SDS011;9041;49.718;21.798;2024-01-07T13:33:28;5.70;;;3.63;;
17832;SDS011;9041;49.718;21.798;2024-01-07T13:35:55;13.90;;;6.17;;
17832;SDS011;9041;49.718;21.798;2024-01-07T13:38:21;13.50;;;6.07;;
17832;SDS011;9041;49.718;21.798;2024-01-07T13:40:48;14.33;;;6.40;;
17832;SDS011;9041;49.718;21.798;2024-01-07T13:43:16;14.57;;;5.83;;
17832;SDS011;9041;49.718;21.798;2024-01-07T13:45:43;8.90;;;4.30;;
17832;SDS011;9041;49.718;21.798;2024-01-07T13:48:11;12.60;;;5.73;;
17832;SDS011;9041;49.718;21.798;2024-01-07T13:50:38;16.97;;;6.40;;
17832;SDS011;9041;49.718;21.798;2024-01-07T13:53:05;15.17;;;6.07;;
17832;SDS011;9041;49.718;21.798;2024-01-07T13:55:31;13.27;;;6.60;;
17832;SDS011;9041;49.718;21.798;2024-01-07T13:57:58;14.17;;;6.47;;
17832;SDS011;9041;49.718;21.798;2024-01-07T14:00:24;13.60;;;6.53;;
17832;SDS011;9041;49.718;21.798;2024-01-07T14:02:51;18.60;;;7.00;;
17832;SDS011;9041;49.718;21.798;2024-01-07T14:05:19;17.50;;;7.50;;
17832;SDS011;9041;49.718;21.798;2024-01-07T14:07:46;18.33;;;7.13;;
17832;SDS011;9041;49.718;21.798;2024-01-07T14:10:12;11.63;;;6.23;;
17832;SDS011;9041;49.718;21.798;2024-01-07T14:12:39;14.30;;;6.60;;
17832;SDS011;9041;49.718;21.798;2024-01-07T14:15:09;20.83;;;7.03;;
17832;SDS011;9041;49.718;21.798;2024-01-07T14:17:35;20.23;;;7.00;;
17832;SDS011;9041;49.718;21.798;2024-01-07T14:20:02;18.47;;;7.17;;
17832;SDS011;9041;49.718;21.798;2024-01-07T14:22:30;15.70;;;6.63;;
17832;SDS011;9041;49.718;21.798;2024-01-07T14:24:57;12.47;;;4.83;;
17832;SDS011;9041;49.718;21.798;2024-01-07T14:27:23;19.00;;;7.13;;
17832;SDS011;9041;49.718;21.798;2024-01-07T14:29:50;19.40;;;7.33;;
17832;SDS011;9041;49.718;21.798;2024-01-07T14:32:17;17.97;;;8.13;;
17832;SDS011;9041;49.718;21.798;2024-01-07T14:34:43;19.00;;;8.53;;
17832;SDS011;9041;49.718;21.798;2024-01-07T14:37:10;17.80;;;6.83;;
17832;SDS011;9041;49.718;21.798;2024-01-07T14:39:38;15.43;;;6.30;;
17832;SDS011;9041;49.718;21.798;2024-01-07T14:42:07;14.80;;;6.30;;
17832;SDS011;9041;49.718;21.798;2024-01-07T14:44:34;16.80;;;6.17;;
17832;SDS011;9041;49.718;21.798;2024-01-07T14:47:00;16.63;;;6.60;;